createdAt,value
2019-03-27T00:00:46.153Z,65.60
2019-03-27T00:03:17.147Z,65.60
2019-03-27T00:05:48.172Z,67.10
2019-03-27T00:08:21.072Z,66.20
2019-03-27T00:10:52.307Z,65.90
2019-03-27T00:13:24.026Z,65.80
2019-03-27T00:15:55.175Z,66.60
2019-03-27T00:18:25.910Z,67.40
2019-03-27T00:20:58.250Z,66.40
2019-03-27T00:23:29.198Z,66.30
2019-03-27T00:26:00.356Z,66.30
2019-03-27T00:28:32.668Z,65.40
2019-03-27T00:31:03.595Z,66.30
2019-03-27T00:33:41.516Z,65.30
2019-03-27T00:36:12.420Z,64.50
2019-03-27T00:38:44.644Z,64.30
2019-03-27T00:41:15.657Z,64.50
2019-03-27T00:43:46.704Z,63.80
2019-03-27T00:46:18.085Z,63.90
2019-03-27T00:48:49.040Z,64.20
2019-03-27T00:51:19.891Z,63.90
2019-03-27T00:53:51.157Z,63.60
2019-03-27T00:56:23.390Z,64.20
2019-03-27T00:58:54.402Z,64.20
2019-03-27T01:01:25.640Z,63.50
2019-03-27T01:03:57.033Z,63.00
2019-03-27T01:06:28.285Z,62.70
2019-03-27T01:08:59.583Z,62.20
2019-03-27T01:11:30.789Z,61.90
2019-03-27T01:14:01.935Z,61.20
2019-03-27T01:16:36.140Z,61.20
2019-03-27T01:19:07.505Z,60.70
2019-03-27T01:21:38.864Z,60.70
2019-03-27T01:24:12.229Z,60.60
2019-03-27T01:26:45.883Z,60.40
2019-03-27T01:29:17.258Z,60.80
2019-03-27T01:31:49.166Z,60.60
2019-03-27T01:34:19.960Z,60.20
2019-03-27T01:36:52.584Z,60.00
2019-03-27T01:39:26.691Z,59.90
2019-03-27T01:41:57.736Z,59.80
2019-03-27T01:44:29.084Z,59.80
2019-03-27T01:47:05.469Z,59.60
2019-03-27T01:49:36.678Z,59.50
2019-03-27T01:52:14.215Z,59.20
2019-03-27T01:54:45.831Z,59.10
2019-03-27T01:57:17.051Z,58.90
2019-03-27T01:59:48.329Z,58.80
2019-03-27T02:02:19.635Z,58.70
2019-03-27T02:04:50.779Z,58.70
2019-03-27T02:07:23.227Z,58.00
2019-03-27T02:09:54.280Z,58.70
2019-03-27T02:12:25.351Z,58.20
2019-03-27T02:14:56.345Z,58.20
2019-03-27T02:17:27.513Z,58.00
2019-03-27T02:19:58.863Z,57.70
2019-03-27T02:22:29.772Z,58.00
2019-03-27T02:25:00.814Z,57.60
2019-03-27T02:27:33.083Z,57.80
2019-03-27T02:30:05.700Z,57.80
2019-03-27T02:32:37.079Z,57.40
2019-03-27T02:35:08.559Z,57.90
2019-03-27T02:37:39.774Z,58.00
2019-03-27T02:40:11.530Z,57.10
2019-03-27T02:42:42.872Z,57.20
2019-03-27T02:45:14.060Z,57.20
2019-03-27T02:47:44.975Z,57.20
2019-03-27T02:50:20.430Z,56.70
2019-03-27T02:52:55.122Z,56.70
2019-03-27T02:55:26.377Z,56.30
2019-03-27T02:58:01.293Z,56.10
2019-03-27T03:00:31.219Z,55.70
2019-03-27T03:03:03.826Z,55.40
2019-03-27T03:05:35.044Z,55.00
2019-03-27T03:08:06.201Z,55.10
2019-03-27T03:10:38.124Z,54.40
2019-03-27T03:13:08.888Z,55.60
2019-03-27T03:15:40.148Z,54.90
2019-03-27T03:18:11.109Z,52.70
2019-03-27T03:20:42.241Z,54.50
2019-03-27T03:23:13.593Z,53.90
2019-03-27T03:25:45.188Z,54.00
2019-03-27T03:28:19.621Z,53.70
2019-03-27T03:30:51.489Z,53.30
2019-03-27T03:33:24.064Z,53.10
2019-03-27T03:35:55.548Z,53.40
2019-03-27T03:38:26.971Z,52.50
2019-03-27T03:40:59.324Z,53.20
2019-03-27T03:43:30.559Z,53.10
2019-03-27T03:46:05.029Z,53.50
2019-03-27T03:48:36.400Z,52.90
2019-03-27T03:51:08.713Z,52.80
2019-03-27T03:53:41.228Z,52.70
2019-03-27T03:56:24.487Z,52.30
2019-03-27T03:58:56.838Z,52.20
2019-03-27T04:05:06.582Z,52.90
2019-03-27T04:07:37.535Z,49.30
2019-03-27T04:10:13.228Z,50.90
2019-03-27T04:12:44.822Z,51.50
2019-03-27T04:15:15.964Z,51.20
2019-03-27T04:17:47.152Z,51.40
2019-03-27T04:20:23.019Z,50.60
2019-03-27T04:22:54.352Z,50.40
2019-03-27T04:25:28.478Z,50.60
2019-03-27T04:27:59.650Z,51.70
2019-03-27T04:30:30.745Z,50.80
2019-03-27T04:33:01.798Z,50.50
2019-03-27T04:35:32.872Z,51.00
2019-03-27T04:38:04.034Z,49.80
2019-03-27T04:40:35.381Z,50.80
2019-03-27T04:43:07.188Z,50.90
2019-03-27T04:45:40.946Z,50.00
2019-03-27T04:48:14.996Z,50.00
2019-03-27T04:50:46.388Z,48.30
2019-03-27T04:53:21.225Z,47.00
2019-03-27T04:55:54.400Z,47.90
2019-03-27T04:58:25.599Z,48.10
2019-03-27T05:00:56.658Z,48.10
2019-03-27T05:03:29.027Z,48.50
2019-03-27T05:06:01.553Z,49.00
2019-03-27T05:08:33.014Z,50.10
2019-03-27T05:11:05.168Z,49.00
2019-03-27T05:13:36.103Z,48.90
2019-03-27T05:16:07.241Z,48.90
2019-03-27T05:18:39.318Z,49.10
2019-03-27T05:21:18.661Z,48.10
2019-03-27T05:23:51.363Z,48.20
2019-03-27T05:26:22.733Z,47.80
2019-03-27T05:28:59.294Z,46.40
2019-03-27T05:31:30.847Z,46.20
2019-03-27T05:34:02.055Z,44.70
2019-03-27T05:36:33.048Z,46.10
2019-03-27T05:39:07.452Z,46.50
2019-03-27T05:41:39.700Z,46.70
2019-03-27T05:44:12.354Z,46.30
2019-03-27T05:46:45.477Z,44.90
2019-03-27T05:49:17.678Z,44.20
2019-03-27T05:51:49.283Z,44.30
2019-03-27T05:54:23.144Z,44.70
2019-03-27T05:56:54.955Z,44.80
2019-03-27T05:59:26.719Z,45.70
2019-03-27T06:02:02.675Z,45.90
2019-03-27T06:04:39.091Z,46.80
2019-03-27T06:07:12.404Z,45.90
2019-03-27T06:09:42.391Z,45.70
2019-03-27T06:12:23.123Z,47.40
2019-03-27T06:14:50.434Z,46.30
2019-03-27T06:17:22.795Z,44.70
2019-03-27T06:19:55.315Z,45.10
2019-03-27T06:22:28.530Z,46.00
2019-03-27T06:25:01.776Z,46.30
2019-03-27T06:27:35.538Z,45.50
2019-03-27T06:30:11.225Z,45.50
2019-03-27T06:32:46.294Z,46.80
2019-03-27T06:35:20.046Z,47.10
2019-03-27T06:37:53.257Z,46.40
2019-03-27T06:40:43.769Z,44.70
2019-03-27T06:43:14.962Z,44.40
2019-03-27T06:45:49.282Z,46.00
2019-03-27T06:48:26.218Z,45.80
2019-03-27T06:50:52.191Z,44.80
2019-03-27T06:53:23.596Z,40.90
2019-03-27T06:55:54.585Z,44.70
2019-03-27T06:58:25.711Z,44.40
2019-03-27T07:00:59.289Z,45.60
2019-03-27T07:03:31.620Z,41.40
2019-03-27T07:06:02.564Z,43.40
2019-03-27T07:08:33.739Z,42.70
2019-03-27T07:11:07.750Z,44.40
2019-03-27T07:13:40.883Z,44.40
2019-03-27T07:16:13.104Z,40.90
2019-03-27T07:18:44.289Z,42.70
2019-03-27T07:21:15.308Z,44.60
2019-03-27T07:23:46.636Z,44.40
2019-03-27T07:26:17.734Z,42.50
2019-03-27T07:28:50.129Z,43.00
2019-03-27T07:31:21.542Z,41.90
2019-03-27T07:33:52.659Z,42.40
2019-03-27T07:36:23.678Z,44.40
2019-03-27T07:38:55.155Z,41.90
2019-03-27T07:41:32.735Z,41.60
2019-03-27T07:44:04.218Z,41.10
2019-03-27T07:46:39.005Z,41.20
2019-03-27T07:52:56.431Z,38.60
2019-03-27T07:55:27.298Z,38.90
2019-03-27T07:57:58.410Z,42.00
2019-03-27T08:00:29.609Z,42.40
2019-03-27T08:03:00.423Z,42.20
2019-03-27T08:05:31.673Z,40.90
2019-03-27T08:08:02.625Z,41.40
2019-03-27T08:10:37.123Z,41.80
2019-03-27T08:13:09.471Z,42.30
2019-03-27T08:15:40.965Z,40.50
2019-03-27T08:18:13.726Z,41.20
2019-03-27T08:20:44.991Z,41.80
2019-03-27T08:23:15.958Z,41.60
2019-03-27T08:25:48.348Z,40.40
2019-03-27T08:28:20.415Z,39.50
2019-03-27T08:30:53.170Z,40.20
2019-03-27T08:33:24.021Z,41.50
2019-03-27T08:35:56.371Z,38.70
2019-03-27T08:38:30.270Z,40.50
2019-03-27T08:41:01.557Z,39.90
2019-03-27T08:43:35.020Z,38.80
2019-03-27T08:46:07.613Z,37.30
2019-03-27T08:48:39.278Z,38.50
2019-03-27T08:51:11.865Z,39.20
2019-03-27T08:53:42.788Z,38.10
2019-03-27T08:56:19.174Z,38.20
2019-03-27T08:58:50.180Z,37.10
2019-03-27T09:01:23.947Z,38.30
2019-03-27T09:03:58.230Z,37.20
2019-03-27T09:06:33.909Z,38.50
2019-03-27T09:09:17.760Z,38.30
2019-03-27T09:11:44.461Z,38.20
2019-03-27T09:14:18.187Z,38.70
2019-03-27T09:16:50.171Z,39.30
2019-03-27T09:19:34.628Z,39.70
2019-03-27T09:21:54.996Z,39.40
2019-03-27T09:24:26.549Z,36.50
2019-03-27T09:26:57.690Z,36.50
2019-03-27T09:29:29.546Z,37.70
2019-03-27T09:32:00.501Z,39.10
2019-03-27T09:34:32.140Z,38.40
2019-03-27T09:37:04.507Z,38.40
2019-03-27T09:39:35.523Z,38.90
2019-03-27T09:42:06.568Z,38.90
2019-03-27T09:44:37.455Z,39.00
2019-03-27T09:47:08.881Z,38.50
2019-03-27T09:49:49.461Z,38.50
2019-03-27T09:52:12.383Z,37.10
2019-03-27T09:54:44.792Z,37.50
2019-03-27T09:57:18.409Z,37.70
2019-03-27T09:59:49.701Z,39.90
2019-03-27T10:02:22.220Z,40.00
2019-03-27T10:04:59.528Z,37.00
2019-03-27T10:13:51.283Z,37.30
2019-03-27T10:16:22.454Z,38.00
2019-03-27T10:18:53.462Z,37.90
2019-03-27T10:21:24.353Z,38.50
2019-03-27T10:23:55.425Z,39.10
2019-03-27T10:26:34.453Z,39.80
2019-03-27T10:29:05.682Z,39.30
2019-03-27T10:31:39.192Z,38.50
2019-03-27T10:34:10.227Z,38.40
2019-03-27T10:36:41.202Z,37.70
2019-03-27T10:39:12.904Z,37.90
2019-03-27T10:41:44.123Z,38.00
2019-03-27T10:44:17.765Z,37.60
2019-03-27T10:46:50.567Z,38.60
2019-03-27T10:49:24.438Z,38.20
2019-03-27T10:51:55.618Z,38.80
2019-03-27T10:54:26.511Z,39.00
2019-03-27T10:57:02.264Z,39.70
2019-03-27T10:59:33.383Z,39.70
2019-03-27T11:02:04.425Z,39.70
2019-03-27T11:04:36.173Z,38.60
2019-03-27T11:07:07.336Z,39.80
2019-03-27T11:09:38.429Z,41.60
2019-03-27T11:12:09.543Z,41.80
2019-03-27T11:14:44.130Z,42.80
2019-03-27T11:17:18.138Z,43.70
2019-03-27T11:19:49.168Z,44.60
2019-03-27T11:22:20.150Z,46.40
2019-03-27T11:24:51.086Z,48.90
2019-03-27T11:27:22.053Z,49.10
2019-03-27T11:29:53.106Z,48.90
2019-03-27T11:32:26.012Z,48.80
2019-03-27T11:34:57.003Z,50.40
2019-03-27T11:37:30.977Z,50.80
2019-03-27T11:40:01.721Z,51.50
2019-03-27T11:42:32.806Z,50.90
2019-03-27T11:45:03.956Z,50.80
2019-03-27T11:47:35.164Z,51.60
2019-03-27T11:50:09.124Z,53.50
2019-03-27T11:52:40.374Z,55.00
2019-03-27T11:55:11.542Z,53.90
2019-03-27T11:57:42.521Z,54.60
2019-03-27T12:00:13.798Z,55.20
2019-03-27T12:02:44.879Z,57.10
2019-03-27T12:05:17.108Z,56.30
2019-03-27T12:07:48.879Z,56.00
2019-03-27T12:10:20.513Z,57.80
2019-03-27T12:12:51.526Z,56.80
2019-03-27T12:15:26.109Z,56.90
2019-03-27T12:17:57.347Z,57.90
2019-03-27T12:20:28.261Z,57.20
2019-03-27T12:23:00.241Z,61.70
2019-03-27T12:25:31.110Z,60.00
2019-03-27T12:28:03.269Z,58.10
2019-03-27T12:30:34.376Z,58.70
2019-03-27T12:33:06.018Z,58.40
2019-03-27T12:35:37.019Z,58.70
2019-03-27T12:38:08.288Z,60.00
2019-03-27T12:40:39.325Z,60.40
2019-03-27T12:43:10.683Z,58.90
2019-03-27T12:45:42.341Z,59.70
2019-03-27T12:48:13.467Z,59.50
2019-03-27T12:50:44.587Z,61.50
2019-03-27T12:53:15.794Z,64.50
2019-03-27T12:55:46.839Z,61.80
2019-03-27T12:58:17.933Z,62.40
2019-03-27T13:00:49.103Z,61.70
2019-03-27T13:03:20.360Z,62.80
2019-03-27T13:05:51.243Z,63.10
2019-03-27T13:08:22.450Z,67.70
2019-03-27T13:10:53.379Z,65.70
2019-03-27T13:13:24.323Z,64.60
2019-03-27T13:15:55.420Z,65.40
2019-03-27T13:18:26.320Z,64.70
2019-03-27T13:21:04.093Z,65.90
2019-03-27T13:23:33.851Z,64.90
2019-03-27T13:26:05.023Z,64.60
2019-03-27T13:28:48.286Z,64.40
2019-03-27T13:31:09.209Z,64.40
2019-03-27T13:33:40.353Z,65.20
2019-03-27T13:36:11.314Z,68.10
2019-03-27T13:38:42.143Z,66.10
2019-03-27T13:41:16.015Z,65.90
2019-03-27T13:43:48.039Z,64.30
2019-03-27T13:46:19.041Z,68.90
2019-03-27T13:48:50.926Z,66.80
2019-03-27T13:51:21.917Z,70.80
2019-03-27T13:53:52.800Z,70.00
2019-03-27T13:56:23.901Z,72.10
2019-03-27T13:58:54.910Z,69.40
2019-03-27T14:01:27.002Z,67.50
2019-03-27T14:03:58.271Z,69.80
2019-03-27T14:06:29.146Z,68.20
2019-03-27T14:09:00.031Z,70.60
2019-03-27T14:11:31.275Z,68.40
2019-03-27T14:14:11.288Z,68.20
2019-03-27T14:16:34.755Z,68.20
2019-03-27T14:19:05.592Z,72.00
2019-03-27T14:21:36.650Z,76.60
2019-03-27T14:24:08.579Z,77.50
2019-03-27T14:26:45.450Z,77.60
2019-03-27T14:29:14.643Z,75.30
2019-03-27T14:31:45.806Z,75.10
2019-03-27T14:34:16.863Z,73.40
2019-03-27T14:36:47.787Z,75.50
2019-03-27T14:39:18.638Z,77.20
2019-03-27T14:41:49.682Z,77.60
2019-03-27T14:44:20.869Z,76.80
2019-03-27T14:46:52.062Z,72.90
2019-03-27T14:49:23.100Z,70.70
2019-03-27T14:52:07.391Z,69.90
2019-03-27T14:54:26.329Z,69.00
2019-03-27T14:56:57.065Z,71.10
2019-03-27T14:59:28.332Z,71.40
2019-03-27T15:01:59.275Z,68.60
2019-03-27T15:04:30.259Z,70.10
2019-03-27T15:07:01.435Z,69.10
2019-03-27T15:09:32.543Z,73.60
2019-03-27T15:12:03.398Z,75.70
2019-03-27T15:14:34.384Z,76.60
2019-03-27T15:17:05.352Z,76.70
2019-03-27T15:19:36.563Z,78.50
2019-03-27T15:22:21.389Z,78.30
2019-03-27T15:24:40.243Z,76.50
2019-03-27T15:27:11.129Z,77.00
2019-03-27T15:29:43.280Z,77.90
2019-03-27T15:32:14.483Z,77.90
2019-03-27T15:34:45.603Z,78.20
2019-03-27T15:37:16.768Z,76.30
2019-03-27T15:39:47.909Z,74.90
2019-03-27T15:42:18.727Z,78.00
2019-03-27T15:44:50.062Z,78.10
2019-03-27T15:47:21.156Z,73.30
2019-03-27T15:49:52.726Z,76.60
2019-03-27T15:52:35.791Z,79.40
2019-03-27T15:54:57.428Z,79.50
2019-03-27T15:57:29.457Z,77.80
2019-03-27T16:00:01.289Z,76.30
2019-03-27T16:02:32.409Z,78.90
2019-03-27T16:05:03.300Z,80.50
2019-03-27T16:07:34.343Z,80.70
2019-03-27T16:10:06.839Z,80.40
2019-03-27T16:12:37.844Z,78.90
2019-03-27T16:15:09.916Z,77.80
2019-03-27T16:17:41.136Z,80.30
2019-03-27T16:20:12.236Z,79.20
2019-03-27T16:22:50.574Z,80.50
2019-03-27T16:25:16.571Z,79.30
2019-03-27T16:27:47.751Z,80.30
2019-03-27T16:30:19.175Z,76.30
2019-03-27T16:32:50.288Z,73.60
2019-03-27T16:35:21.384Z,75.30
2019-03-27T16:37:52.399Z,77.80
2019-03-27T16:40:26.024Z,73.90
2019-03-27T16:42:57.331Z,75.60
2019-03-27T16:45:28.945Z,75.50
2019-03-27T16:47:59.834Z,79.00
2019-03-27T16:50:30.731Z,79.20
2019-03-27T16:53:03.759Z,75.80
2019-03-27T16:55:34.218Z,74.40
2019-03-27T16:58:05.125Z,78.00
2019-03-27T17:00:36.062Z,76.70
2019-03-27T17:03:07.233Z,77.60
2019-03-27T17:05:38.624Z,74.50
2019-03-27T17:08:09.662Z,73.70
2019-03-27T17:10:40.648Z,79.20
2019-03-27T17:13:11.837Z,77.80
2019-03-27T17:15:42.901Z,78.40
2019-03-27T17:18:13.935Z,77.60
2019-03-27T17:20:45.041Z,74.00
2019-03-27T17:23:18.557Z,74.50
2019-03-27T17:25:48.717Z,73.70
2019-03-27T17:28:19.719Z,73.80
2019-03-27T17:30:50.851Z,76.70
2019-03-27T17:33:22.180Z,77.70
2019-03-27T17:35:53.362Z,78.90
2019-03-27T17:38:24.336Z,76.50
2019-03-27T17:40:55.580Z,74.50
2019-03-27T17:43:27.597Z,74.30
2019-03-27T17:45:58.359Z,75.10
2019-03-27T17:48:29.340Z,75.60
2019-03-27T17:51:00.391Z,77.00
2019-03-27T17:53:32.216Z,77.00
2019-03-27T17:56:03.627Z,76.00
2019-03-27T17:58:34.625Z,76.70
2019-03-27T18:01:05.905Z,74.70
2019-03-27T18:03:36.989Z,73.60
2019-03-27T18:06:07.980Z,74.30
2019-03-27T18:08:38.833Z,73.70
2019-03-27T18:11:09.784Z,73.60
2019-03-27T18:13:41.097Z,76.20
2019-03-27T18:16:12.291Z,76.50
2019-03-27T18:18:43.207Z,78.90
2019-03-27T18:21:14.485Z,79.30
2019-03-27T18:23:46.626Z,80.40
2019-03-27T18:26:18.041Z,81.40
2019-03-27T18:28:49.033Z,79.90
2019-03-27T18:31:20.033Z,79.00
2019-03-27T18:33:51.127Z,77.70
2019-03-27T18:36:22.079Z,76.60
2019-03-27T18:38:53.111Z,75.40
2019-03-27T18:41:23.920Z,74.00
2019-03-27T18:43:54.760Z,73.30
2019-03-27T18:46:26.050Z,72.90
2019-03-27T18:48:57.068Z,73.80
2019-03-27T18:51:27.944Z,73.40
2019-03-27T18:54:00.145Z,75.60
2019-03-27T18:56:31.261Z,73.60
2019-03-27T18:59:04.162Z,75.70
2019-03-27T19:01:34.831Z,75.40
2019-03-27T19:04:06.030Z,78.30
2019-03-27T19:06:36.915Z,77.70
2019-03-27T19:09:10.022Z,77.40
2019-03-27T19:11:41.102Z,77.50
2019-03-27T19:14:11.909Z,77.90
2019-03-27T19:16:43.109Z,80.10
2019-03-27T19:19:14.205Z,79.20
2019-03-27T19:21:45.063Z,75.90
2019-03-27T19:24:17.357Z,75.10
2019-03-27T19:26:48.324Z,76.70
2019-03-27T19:29:19.260Z,77.10
2019-03-27T19:31:50.196Z,76.40
2019-03-27T19:34:21.481Z,78.60
2019-03-27T19:36:52.425Z,81.60
2019-03-27T19:39:23.441Z,80.10
2019-03-27T19:41:54.637Z,80.70
2019-03-27T19:44:25.821Z,80.30
2019-03-27T19:46:56.715Z,82.30
2019-03-27T19:49:27.705Z,80.60
2019-03-27T19:51:58.662Z,82.10
2019-03-27T19:54:29.773Z,81.00
2019-03-27T19:57:01.000Z,80.80
2019-03-27T19:59:31.900Z,79.00
2019-03-27T20:02:03.064Z,79.80
2019-03-27T20:04:34.188Z,81.50
2019-03-27T20:07:05.213Z,77.90
2019-03-27T20:09:36.107Z,79.10
2019-03-27T20:12:07.310Z,77.50
2019-03-27T20:14:38.166Z,78.90
2019-03-27T20:17:09.377Z,80.10
2019-03-27T20:19:40.301Z,81.40
2019-03-27T20:22:11.339Z,82.00
2019-03-27T20:24:42.333Z,78.70
2019-03-27T20:27:13.426Z,77.70
2019-03-27T20:29:46.536Z,77.30
2019-03-27T20:32:16.863Z,82.40
2019-03-27T20:34:47.884Z,80.70
2019-03-27T20:37:18.800Z,80.80
2019-03-27T20:39:49.709Z,80.60
2019-03-27T20:42:20.876Z,81.50
2019-03-27T20:44:56.718Z,82.30
2019-03-27T20:47:27.853Z,80.50
2019-03-27T20:49:59.364Z,80.90
2019-03-27T20:52:30.915Z,82.90
2019-03-27T20:55:01.811Z,82.10
2019-03-27T20:57:33.122Z,83.50
2019-03-27T21:00:04.257Z,84.30
2019-03-27T21:02:35.273Z,83.90
2019-03-27T21:05:08.468Z,82.70
2019-03-27T21:07:39.548Z,83.90
2019-03-27T21:10:11.365Z,83.50
2019-03-27T21:12:42.657Z,83.70
2019-03-27T21:15:13.932Z,84.90
2019-03-27T21:17:44.899Z,84.20
2019-03-27T21:20:16.184Z,85.30
2019-03-27T21:22:47.417Z,85.10
2019-03-27T21:25:18.341Z,84.60
2019-03-27T21:27:49.431Z,84.60
2019-03-27T21:30:20.601Z,84.80
2019-03-27T21:32:51.636Z,84.90
2019-03-27T21:35:22.426Z,85.50
2019-03-27T21:37:53.462Z,84.90
2019-03-27T21:40:24.464Z,85.60
2019-03-27T21:42:55.469Z,86.00
2019-03-27T21:45:26.618Z,86.00
2019-03-27T21:47:57.743Z,85.80
2019-03-27T21:50:28.683Z,84.50
2019-03-27T21:53:01.140Z,85.70
2019-03-27T21:55:42.135Z,85.90
2019-03-27T21:58:04.801Z,85.90
2019-03-27T22:00:38.184Z,85.70
2019-03-27T22:03:10.135Z,85.50
2019-03-27T22:05:41.171Z,86.30
2019-03-27T22:08:11.882Z,86.30
2019-03-27T22:10:43.067Z,86.40
2019-03-27T22:13:14.041Z,86.10
2019-03-27T22:15:44.992Z,86.20
2019-03-27T22:18:16.032Z,86.20
2019-03-27T22:20:47.087Z,86.10
2019-03-27T22:23:17.801Z,86.10
2019-03-27T22:25:48.859Z,84.90
2019-03-27T22:28:20.136Z,85.00
2019-03-27T22:30:51.415Z,85.80
2019-03-27T22:33:22.583Z,86.20
2019-03-27T22:35:53.649Z,86.20
2019-03-27T22:38:24.793Z,85.90
2019-03-27T22:40:55.826Z,86.10
2019-03-27T22:43:26.734Z,86.20
2019-03-27T22:45:57.712Z,86.20
2019-03-27T22:48:29.068Z,86.30
2019-03-27T22:51:00.233Z,86.20
2019-03-27T22:53:31.116Z,86.10
2019-03-27T22:56:02.196Z,86.30
2019-03-27T22:58:33.066Z,85.80
2019-03-27T23:01:07.362Z,86.30
2019-03-27T23:03:41.490Z,86.10
2019-03-27T23:06:12.657Z,86.10
2019-03-27T23:08:43.717Z,86.60
2019-03-27T23:11:14.630Z,86.30
2019-03-27T23:13:45.715Z,86.60
2019-03-27T23:16:16.692Z,86.30
2019-03-27T23:18:47.802Z,86.20
2019-03-27T23:21:18.571Z,86.00
2019-03-27T23:23:49.584Z,86.30
2019-03-27T23:26:20.681Z,85.90
2019-03-27T23:28:51.702Z,85.90
2019-03-27T23:31:22.837Z,86.40
2019-03-27T23:33:53.895Z,86.10
2019-03-27T23:36:25.542Z,85.70
2019-03-27T23:38:56.787Z,85.60
2019-03-27T23:41:28.245Z,84.90
2019-03-27T23:44:01.998Z,84.20
2019-03-27T23:46:32.958Z,84.10
2019-03-27T23:49:04.224Z,84.60
2019-03-27T23:51:35.463Z,84.50
2019-03-27T23:54:06.719Z,83.90
2019-03-27T23:56:37.434Z,83.60
2019-03-27T23:59:08.660Z,83.00
